sensor_id;sensor_type;location;lat;lon;timestamp;temperature;humidity
4249;DHT22;8404;48.752;12.922;2022-11-15T00:00:45;5.00;95.90
4249;DHT22;8404;48.752;12.922;2022-11-15T00:03:32;4.90;95.90
4249;DHT22;8404;48.752;12.922;2022-11-15T00:06:19;4.90;96.00
4249;DHT22;8404;48.752;12.922;2022-11-15T00:09:07;4.90;96.20
4249;DHT22;8404;48.752;12.922;2022-11-15T00:11:54;4.90;96.40
4249;DHT22;8404;48.752;12.922;2022-11-15T00:14:40;4.80;96.70
4249;DHT22;8404;48.752;12.922;2022-11-15T00:17:27;4.80;97.00
4249;DHT22;8404;48.752;12.922;2022-11-15T00:20:15;4.80;97.10
4249;DHT22;8404;48.752;12.922;2022-11-15T00:23:03;4.80;97.30
4249;DHT22;8404;48.752;12.922;2022-11-15T00:25:57;4.80;97.30
4249;DHT22;8404;48.752;12.922;2022-11-15T00:28:44;4.90;97.10
4249;DHT22;8404;48.752;12.922;2022-11-15T00:31:31;4.90;97.00
4249;DHT22;8404;48.752;12.922;2022-11-15T00:34:18;4.90;96.80
4249;DHT22;8404;48.752;12.922;2022-11-15T00:37:06;4.90;96.80
4249;DHT22;8404;48.752;12.922;2022-11-15T00:39:52;4.80;96.80
4249;DHT22;8404;48.752;12.922;2022-11-15T00:42:42;4.80;96.80
4249;DHT22;8404;48.752;12.922;2022-11-15T00:45:29;4.80;96.70
4249;DHT22;8404;48.752;12.922;2022-11-15T00:48:15;4.80;96.80
4249;DHT22;8404;48.752;12.922;2022-11-15T00:51:02;4.80;96.80
4249;DHT22;8404;48.752;12.922;2022-11-15T00:53:49;4.70;96.80
4249;DHT22;8404;48.752;12.922;2022-11-15T00:56:35;4.70;96.90
4249;DHT22;8404;48.752;12.922;2022-11-15T00:59:23;4.60;96.80
4249;DHT22;8404;48.752;12.922;2022-11-15T01:02:10;4.50;96.80
4249;DHT22;8404;48.752;12.922;2022-11-15T01:04:56;4.40;96.80
4249;DHT22;8404;48.752;12.922;2022-11-15T01:07:43;4.40;96.90
4249;DHT22;8404;48.752;12.922;2022-11-15T01:10:30;4.30;97.10
4249;DHT22;8404;48.752;12.922;2022-11-15T01:13:16;4.20;97.00
4249;DHT22;8404;48.752;12.922;2022-11-15T01:16:08;4.20;96.80
4249;DHT22;8404;48.752;12.922;2022-11-15T01:18:55;4.20;96.80
4249;DHT22;8404;48.752;12.922;2022-11-15T01:21:41;4.10;96.80
4249;DHT22;8404;48.752;12.922;2022-11-15T01:24:28;4.10;96.80
4249;DHT22;8404;48.752;12.922;2022-11-15T01:27:14;4.00;97.00
4249;DHT22;8404;48.752;12.922;2022-11-15T01:30:01;4.00;96.90
4249;DHT22;8404;48.752;12.922;2022-11-15T01:32:48;3.90;97.00
4249;DHT22;8404;48.752;12.922;2022-11-15T01:35:38;4.00;96.90
4249;DHT22;8404;48.752;12.922;2022-11-15T01:38:26;4.00;97.00
4249;DHT22;8404;48.752;12.922;2022-11-15T01:41:17;4.00;97.10
4249;DHT22;8404;48.752;12.922;2022-11-15T01:44:31;4.00;97.30
4249;DHT22;8404;48.752;12.922;2022-11-15T01:47:21;4.00;97.30
4249;DHT22;8404;48.752;12.922;2022-11-15T01:50:13;4.10;97.10
4249;DHT22;8404;48.752;12.922;2022-11-15T01:53:01;4.10;97.20
4249;DHT22;8404;48.752;12.922;2022-11-15T01:55:47;4.00;97.40
4249;DHT22;8404;48.752;12.922;2022-11-15T01:58:34;4.00;97.40
4249;DHT22;8404;48.752;12.922;2022-11-15T02:01:24;4.00;97.50
4249;DHT22;8404;48.752;12.922;2022-11-15T02:04:14;4.00;97.50
4249;DHT22;8404;48.752;12.922;2022-11-15T02:07:05;3.90;97.60
4249;DHT22;8404;48.752;12.922;2022-11-15T02:09:53;3.90;97.50
4249;DHT22;8404;48.752;12.922;2022-11-15T02:12:41;3.90;97.30
4249;DHT22;8404;48.752;12.922;2022-11-15T02:15:35;3.90;97.30
4249;DHT22;8404;48.752;12.922;2022-11-15T02:18:29;3.90;97.40
4249;DHT22;8404;48.752;12.922;2022-11-15T02:21:24;3.80;97.30
4249;DHT22;8404;48.752;12.922;2022-11-15T02:24:44;3.80;97.80
4249;DHT22;8404;48.752;12.922;2022-11-15T02:27:53;3.70;97.60
4249;DHT22;8404;48.752;12.922;2022-11-15T02:30:48;3.70;97.70
4249;DHT22;8404;48.752;12.922;2022-11-15T02:33:44;3.70;97.60
4249;DHT22;8404;48.752;12.922;2022-11-15T02:36:42;3.70;97.40
4249;DHT22;8404;48.752;12.922;2022-11-15T02:39:35;3.80;97.40
4249;DHT22;8404;48.752;12.922;2022-11-15T02:42:28;3.80;97.40
4249;DHT22;8404;48.752;12.922;2022-11-15T02:45:39;3.90;97.30
4249;DHT22;8404;48.752;12.922;2022-11-15T02:48:28;3.90;97.30
4249;DHT22;8404;48.752;12.922;2022-11-15T02:51:16;3.90;97.30
4249;DHT22;8404;48.752;12.922;2022-11-15T02:54:04;3.90;97.40
4249;DHT22;8404;48.752;12.922;2022-11-15T02:56:53;3.90;97.50
4249;DHT22;8404;48.752;12.922;2022-11-15T02:59:56;3.90;97.50
4249;DHT22;8404;48.752;12.922;2022-11-15T03:03:00;3.80;97.50
4249;DHT22;8404;48.752;12.922;2022-11-15T03:05:59;3.80;97.40
4249;DHT22;8404;48.752;12.922;2022-11-15T03:08:57;3.70;97.40
4249;DHT22;8404;48.752;12.922;2022-11-15T03:11:57;3.60;97.40
4249;DHT22;8404;48.752;12.922;2022-11-15T03:14:53;3.50;97.50
4249;DHT22;8404;48.752;12.922;2022-11-15T03:17:45;3.50;97.60
4249;DHT22;8404;48.752;12.922;2022-11-15T03:20:35;3.40;97.70
4249;DHT22;8404;48.752;12.922;2022-11-15T03:23:24;3.40;97.80
4249;DHT22;8404;48.752;12.922;2022-11-15T03:26:14;3.40;97.90
4249;DHT22;8404;48.752;12.922;2022-11-15T03:29:06;3.30;97.90
4249;DHT22;8404;48.752;12.922;2022-11-15T03:31:58;3.40;98.00
4249;DHT22;8404;48.752;12.922;2022-11-15T03:34:49;3.30;98.00
4249;DHT22;8404;48.752;12.922;2022-11-15T03:37:42;3.30;98.00
4249;DHT22;8404;48.752;12.922;2022-11-15T03:40:36;3.20;98.00
4249;DHT22;8404;48.752;12.922;2022-11-15T03:43:30;3.20;97.90
4249;DHT22;8404;48.752;12.922;2022-11-15T03:46:23;3.20;98.00
4249;DHT22;8404;48.752;12.922;2022-11-15T03:49:15;3.20;98.10
4249;DHT22;8404;48.752;12.922;2022-11-15T03:52:04;3.20;98.00
4249;DHT22;8404;48.752;12.922;2022-11-15T03:54:53;3.30;98.10
4249;DHT22;8404;48.752;12.922;2022-11-15T03:57:41;3.30;98.00
4249;DHT22;8404;48.752;12.922;2022-11-15T04:00:28;3.40;98.00
4249;DHT22;8404;48.752;12.922;2022-11-15T04:03:15;3.40;97.80
4249;DHT22;8404;48.752;12.922;2022-11-15T04:06:02;3.40;97.70
4249;DHT22;8404;48.752;12.922;2022-11-15T04:08:48;3.40;97.70
4249;DHT22;8404;48.752;12.922;2022-11-15T04:11:34;3.40;97.80
4249;DHT22;8404;48.752;12.922;2022-11-15T04:14:22;3.30;97.80
4249;DHT22;8404;48.752;12.922;2022-11-15T04:17:09;3.30;98.10
4249;DHT22;8404;48.752;12.922;2022-11-15T04:19:55;3.40;97.90
4249;DHT22;8404;48.752;12.922;2022-11-15T04:23:01;3.40;98.10
4249;DHT22;8404;48.752;12.922;2022-11-15T04:26:08;3.40;98.10
4249;DHT22;8404;48.752;12.922;2022-11-15T04:28:55;3.40;98.40
4249;DHT22;8404;48.752;12.922;2022-11-15T04:32:01;3.40;98.20
4249;DHT22;8404;48.752;12.922;2022-11-15T04:34:47;3.40;98.00
4249;DHT22;8404;48.752;12.922;2022-11-15T04:37:34;3.40;97.70
4249;DHT22;8404;48.752;12.922;2022-11-15T04:40:20;3.30;97.60
4249;DHT22;8404;48.752;12.922;2022-11-15T04:43:07;3.30;97.40
4249;DHT22;8404;48.752;12.922;2022-11-15T04:45:53;3.20;97.30
4249;DHT22;8404;48.752;12.922;2022-11-15T04:48:42;3.20;97.20
4249;DHT22;8404;48.752;12.922;2022-11-15T04:51:28;3.10;97.20
4249;DHT22;8404;48.752;12.922;2022-11-15T04:54:15;3.10;97.20
4249;DHT22;8404;48.752;12.922;2022-11-15T04:57:02;3.00;97.20
4249;DHT22;8404;48.752;12.922;2022-11-15T04:59:48;3.00;97.20
4249;DHT22;8404;48.752;12.922;2022-11-15T05:02:35;3.00;97.20
4249;DHT22;8404;48.752;12.922;2022-11-15T05:05:41;3.00;97.20
4249;DHT22;8404;48.752;12.922;2022-11-15T05:08:28;3.00;97.40
4249;DHT22;8404;48.752;12.922;2022-11-15T05:11:15;2.90;97.50
4249;DHT22;8404;48.752;12.922;2022-11-15T05:14:02;2.90;97.60
4249;DHT22;8404;48.752;12.922;2022-11-15T05:16:48;2.80;97.70
4249;DHT22;8404;48.752;12.922;2022-11-15T05:19:35;2.90;97.70
4249;DHT22;8404;48.752;12.922;2022-11-15T05:22:23;2.90;97.70
4249;DHT22;8404;48.752;12.922;2022-11-15T05:25:10;2.90;97.60
4249;DHT22;8404;48.752;12.922;2022-11-15T05:27:57;2.90;97.60
4249;DHT22;8404;48.752;12.922;2022-11-15T05:30:43;3.00;97.60
4249;DHT22;8404;48.752;12.922;2022-11-15T05:33:30;3.00;97.60
4249;DHT22;8404;48.752;12.922;2022-11-15T05:36:21;3.00;97.50
4249;DHT22;8404;48.752;12.922;2022-11-15T05:39:13;3.00;97.50
4249;DHT22;8404;48.752;12.922;2022-11-15T05:42:01;3.10;97.50
4249;DHT22;8404;48.752;12.922;2022-11-15T05:44:50;3.10;97.50
4249;DHT22;8404;48.752;12.922;2022-11-15T05:47:38;3.10;97.50
4249;DHT22;8404;48.752;12.922;2022-11-15T05:50:25;3.10;97.50
4249;DHT22;8404;48.752;12.922;2022-11-15T05:53:14;3.10;97.40
4249;DHT22;8404;48.752;12.922;2022-11-15T05:56:03;3.10;97.60
4249;DHT22;8404;48.752;12.922;2022-11-15T05:58:52;3.00;97.70
4249;DHT22;8404;48.752;12.922;2022-11-15T06:01:44;3.00;97.80
4249;DHT22;8404;48.752;12.922;2022-11-15T06:04:31;3.00;97.80
4249;DHT22;8404;48.752;12.922;2022-11-15T06:07:17;2.90;97.80
4249;DHT22;8404;48.752;12.922;2022-11-15T06:10:06;2.90;97.90
4249;DHT22;8404;48.752;12.922;2022-11-15T06:12:57;2.80;97.80
4249;DHT22;8404;48.752;12.922;2022-11-15T06:15:44;2.90;97.80
4249;DHT22;8404;48.752;12.922;2022-11-15T06:18:32;2.90;97.90
4249;DHT22;8404;48.752;12.922;2022-11-15T06:21:19;3.00;97.80
4249;DHT22;8404;48.752;12.922;2022-11-15T06:24:06;3.00;97.80
4249;DHT22;8404;48.752;12.922;2022-11-15T06:26:53;3.00;97.90
4249;DHT22;8404;48.752;12.922;2022-11-15T06:29:41;3.10;97.90
4249;DHT22;8404;48.752;12.922;2022-11-15T06:32:29;3.20;97.90
4249;DHT22;8404;48.752;12.922;2022-11-15T06:35:16;3.20;98.10
4249;DHT22;8404;48.752;12.922;2022-11-15T06:38:04;3.20;98.50
4249;DHT22;8404;48.752;12.922;2022-11-15T06:40:50;3.20;98.70
4249;DHT22;8404;48.752;12.922;2022-11-15T06:43:38;3.40;98.30
4249;DHT22;8404;48.752;12.922;2022-11-15T06:46:26;3.40;98.20
4249;DHT22;8404;48.752;12.922;2022-11-15T06:49:13;3.40;98.00
4249;DHT22;8404;48.752;12.922;2022-11-15T06:51:59;3.40;97.90
4249;DHT22;8404;48.752;12.922;2022-11-15T06:54:46;3.40;97.90
4249;DHT22;8404;48.752;12.922;2022-11-15T06:57:33;3.40;97.70
4249;DHT22;8404;48.752;12.922;2022-11-15T07:00:21;3.40;97.70
4249;DHT22;8404;48.752;12.922;2022-11-15T07:03:10;3.40;97.80
4249;DHT22;8404;48.752;12.922;2022-11-15T07:05:57;3.50;97.90
4249;DHT22;8404;48.752;12.922;2022-11-15T07:08:52;3.50;97.90
4249;DHT22;8404;48.752;12.922;2022-11-15T07:11:38;3.50;97.90
4249;DHT22;8404;48.752;12.922;2022-11-15T07:14:25;3.60;97.90
4249;DHT22;8404;48.752;12.922;2022-11-15T07:17:12;3.60;97.80
4249;DHT22;8404;48.752;12.922;2022-11-15T07:20:01;3.60;97.70
4249;DHT22;8404;48.752;12.922;2022-11-15T07:22:49;3.60;97.60
4249;DHT22;8404;48.752;12.922;2022-11-15T07:25:35;3.60;97.70
4249;DHT22;8404;48.752;12.922;2022-11-15T07:28:22;3.60;97.80
4249;DHT22;8404;48.752;12.922;2022-11-15T07:31:11;3.70;97.80
4249;DHT22;8404;48.752;12.922;2022-11-15T07:33:57;3.70;97.80
4249;DHT22;8404;48.752;12.922;2022-11-15T07:36:48;3.70;97.90
4249;DHT22;8404;48.752;12.922;2022-11-15T07:39:35;3.80;98.00
4249;DHT22;8404;48.752;12.922;2022-11-15T07:42:21;3.90;98.00
4249;DHT22;8404;48.752;12.922;2022-11-15T07:45:26;3.90;98.00
4249;DHT22;8404;48.752;12.922;2022-11-15T07:48:12;4.00;98.00
4249;DHT22;8404;48.752;12.922;2022-11-15T07:50:59;4.10;98.10
4249;DHT22;8404;48.752;12.922;2022-11-15T07:53:46;4.20;98.10
4249;DHT22;8404;48.752;12.922;2022-11-15T07:56:33;4.30;98.10
4249;DHT22;8404;48.752;12.922;2022-11-15T07:59:20;4.30;98.10
4249;DHT22;8404;48.752;12.922;2022-11-15T08:02:08;4.50;98.10
4249;DHT22;8404;48.752;12.922;2022-11-15T08:04:55;4.60;98.20
4249;DHT22;8404;48.752;12.922;2022-11-15T08:07:41;4.70;98.20
4249;DHT22;8404;48.752;12.922;2022-11-15T08:10:29;4.70;98.20
4249;DHT22;8404;48.752;12.922;2022-11-15T08:13:22;4.80;98.20
4249;DHT22;8404;48.752;12.922;2022-11-15T08:16:08;5.00;98.20
4249;DHT22;8404;48.752;12.922;2022-11-15T08:18:57;5.10;98.30
4249;DHT22;8404;48.752;12.922;2022-11-15T08:21:43;5.20;98.30
4249;DHT22;8404;48.752;12.922;2022-11-15T08:24:30;5.30;98.40
4249;DHT22;8404;48.752;12.922;2022-11-15T08:27:18;5.40;98.40
4249;DHT22;8404;48.752;12.922;2022-11-15T08:30:06;5.50;98.40
4249;DHT22;8404;48.752;12.922;2022-11-15T08:32:53;5.60;98.50
4249;DHT22;8404;48.752;12.922;2022-11-15T08:35:40;5.70;98.40
4249;DHT22;8404;48.752;12.922;2022-11-15T08:38:27;5.70;98.40
4249;DHT22;8404;48.752;12.922;2022-11-15T08:41:23;5.90;98.50
4249;DHT22;8404;48.752;12.922;2022-11-15T08:44:12;6.00;98.60
4249;DHT22;8404;48.752;12.922;2022-11-15T08:46:59;6.10;98.60
4249;DHT22;8404;48.752;12.922;2022-11-15T08:49:45;6.20;98.60
4249;DHT22;8404;48.752;12.922;2022-11-15T08:52:32;6.30;98.50
4249;DHT22;8404;48.752;12.922;2022-11-15T08:55:19;6.40;98.50
4249;DHT22;8404;48.752;12.922;2022-11-15T08:58:09;6.50;98.50
4249;DHT22;8404;48.752;12.922;2022-11-15T09:00:57;6.60;98.50
4249;DHT22;8404;48.752;12.922;2022-11-15T09:03:44;6.70;98.50
4249;DHT22;8404;48.752;12.922;2022-11-15T09:06:30;6.80;98.50
4249;DHT22;8404;48.752;12.922;2022-11-15T09:09:17;6.90;98.40
4249;DHT22;8404;48.752;12.922;2022-11-15T09:12:05;7.00;98.30
4249;DHT22;8404;48.752;12.922;2022-11-15T09:14:52;7.10;98.30
4249;DHT22;8404;48.752;12.922;2022-11-15T09:17:40;7.20;98.20
4249;DHT22;8404;48.752;12.922;2022-11-15T09:20:26;7.20;98.00
4249;DHT22;8404;48.752;12.922;2022-11-15T09:23:13;7.30;98.00
4249;DHT22;8404;48.752;12.922;2022-11-15T09:26:00;7.40;98.00
4249;DHT22;8404;48.752;12.922;2022-11-15T09:28:48;7.50;98.00
4249;DHT22;8404;48.752;12.922;2022-11-15T09:31:35;7.60;98.00
4249;DHT22;8404;48.752;12.922;2022-11-15T09:34:23;7.70;98.00
4249;DHT22;8404;48.752;12.922;2022-11-15T09:37:09;7.80;97.90
4249;DHT22;8404;48.752;12.922;2022-11-15T09:39:57;7.90;98.00
4249;DHT22;8404;48.752;12.922;2022-11-15T09:43:09;8.00;98.00
4249;DHT22;8404;48.752;12.922;2022-11-15T09:46:05;8.10;97.90
4249;DHT22;8404;48.752;12.922;2022-11-15T09:48:54;8.20;97.90
4249;DHT22;8404;48.752;12.922;2022-11-15T09:51:44;8.30;97.70
4249;DHT22;8404;48.752;12.922;2022-11-15T09:54:21;8.40;97.70
4249;DHT22;8404;48.752;12.922;2022-11-15T09:57:14;8.50;97.60
4249;DHT22;8404;48.752;12.922;2022-11-15T09:59:55;8.60;97.60
4249;DHT22;8404;48.752;12.922;2022-11-15T10:02:57;8.70;97.50
4249;DHT22;8404;48.752;12.922;2022-11-15T10:05:26;8.80;97.50
4249;DHT22;8404;48.752;12.922;2022-11-15T10:08:02;8.90;97.30
4249;DHT22;8404;48.752;12.922;2022-11-15T10:10:57;9.00;97.20
4249;DHT22;8404;48.752;12.922;2022-11-15T10:19:18;9.30;97.10
4249;DHT22;8404;48.752;12.922;2022-11-15T10:21:56;9.40;97.10
4249;DHT22;8404;48.752;12.922;2022-11-15T10:24:28;9.50;97.10
4249;DHT22;8404;48.752;12.922;2022-11-15T10:26:56;9.60;97.10
4249;DHT22;8404;48.752;12.922;2022-11-15T10:29:25;9.60;97.10
4249;DHT22;8404;48.752;12.922;2022-11-15T10:31:53;9.70;97.00
4249;DHT22;8404;48.752;12.922;2022-11-15T10:34:23;9.80;97.00
4249;DHT22;8404;48.752;12.922;2022-11-15T10:36:55;9.90;97.00
4249;DHT22;8404;48.752;12.922;2022-11-15T10:39:23;10.00;97.00
4249;DHT22;8404;48.752;12.922;2022-11-15T10:41:53;10.10;97.00
4249;DHT22;8404;48.752;12.922;2022-11-15T10:44:24;10.20;96.90
4249;DHT22;8404;48.752;12.922;2022-11-15T10:47:20;10.30;96.90
4249;DHT22;8404;48.752;12.922;2022-11-15T10:50:01;10.40;96.60
4249;DHT22;8404;48.752;12.922;2022-11-15T10:52:30;10.40;96.70
4249;DHT22;8404;48.752;12.922;2022-11-15T10:55:03;10.50;96.80
4249;DHT22;8404;48.752;12.922;2022-11-15T10:57:35;10.60;96.70
4249;DHT22;8404;48.752;12.922;2022-11-15T11:00:06;10.70;96.60
4249;DHT22;8404;48.752;12.922;2022-11-15T11:02:36;10.80;96.60
4249;DHT22;8404;48.752;12.922;2022-11-15T11:05:36;10.80;96.50
4249;DHT22;8404;48.752;12.922;2022-11-15T11:08:22;10.90;96.30
4249;DHT22;8404;48.752;12.922;2022-11-15T11:10:55;11.00;96.40
4249;DHT22;8404;48.752;12.922;2022-11-15T11:13:31;11.10;96.20
4249;DHT22;8404;48.752;12.922;2022-11-15T11:19:22;11.30;96.10
4249;DHT22;8404;48.752;12.922;2022-11-15T11:22:00;11.40;95.90
4249;DHT22;8404;48.752;12.922;2022-11-15T11:24:34;11.40;95.80
4249;DHT22;8404;48.752;12.922;2022-11-15T11:27:18;11.50;95.50
4249;DHT22;8404;48.752;12.922;2022-11-15T11:30:03;11.60;95.60
4249;DHT22;8404;48.752;12.922;2022-11-15T11:32:55;11.60;95.60
4249;DHT22;8404;48.752;12.922;2022-11-15T11:35:30;11.70;95.50
4249;DHT22;8404;48.752;12.922;2022-11-15T11:38:17;11.80;95.30
4249;DHT22;8404;48.752;12.922;2022-11-15T11:40:58;11.80;95.20
4249;DHT22;8404;48.752;12.922;2022-11-15T11:43:34;11.90;95.10
4249;DHT22;8404;48.752;12.922;2022-11-15T11:46:26;12.00;94.70
4249;DHT22;8404;48.752;12.922;2022-11-15T11:49:01;12.00;94.90
4249;DHT22;8404;48.752;12.922;2022-11-15T11:51:34;12.10;94.80
4249;DHT22;8404;48.752;12.922;2022-11-15T11:54:09;12.20;94.80
4249;DHT22;8404;48.752;12.922;2022-11-15T11:56:41;12.20;94.50
4249;DHT22;8404;48.752;12.922;2022-11-15T11:59:19;12.30;94.70
4249;DHT22;8404;48.752;12.922;2022-11-15T12:01:50;12.30;94.70
4249;DHT22;8404;48.752;12.922;2022-11-15T12:04:23;12.40;94.50
4249;DHT22;8404;48.752;12.922;2022-11-15T12:06:58;12.40;93.90
4249;DHT22;8404;48.752;12.922;2022-11-15T12:09:33;12.50;94.00
4249;DHT22;8404;48.752;12.922;2022-11-15T12:12:08;12.60;93.80
4249;DHT22;8404;48.752;12.922;2022-11-15T12:14:42;12.60;93.60
4249;DHT22;8404;48.752;12.922;2022-11-15T12:17:12;12.60;93.50
4249;DHT22;8404;48.752;12.922;2022-11-15T12:19:41;12.70;93.30
4249;DHT22;8404;48.752;12.922;2022-11-15T12:22:13;12.70;93.10
4249;DHT22;8404;48.752;12.922;2022-11-15T12:24:48;12.70;92.40
4249;DHT22;8404;48.752;12.922;2022-11-15T12:27:24;12.80;91.80
4249;DHT22;8404;48.752;12.922;2022-11-15T12:29:56;12.80;92.00
4249;DHT22;8404;48.752;12.922;2022-11-15T12:32:31;12.90;91.70
4249;DHT22;8404;48.752;12.922;2022-11-15T12:35:02;12.90;92.00
4249;DHT22;8404;48.752;12.922;2022-11-15T12:37:52;12.90;91.80
4249;DHT22;8404;48.752;12.922;2022-11-15T12:40:35;13.00;92.10
4249;DHT22;8404;48.752;12.922;2022-11-15T12:46:03;13.10;92.20
4249;DHT22;8404;48.752;12.922;2022-11-15T12:48:58;13.10;92.10
4249;DHT22;8404;48.752;12.922;2022-11-15T12:55:00;13.20;91.80
4249;DHT22;8404;48.752;12.922;2022-11-15T12:57:35;13.20;91.40
4249;DHT22;8404;48.752;12.922;2022-11-15T13:03:25;13.20;91.20
4249;DHT22;8404;48.752;12.922;2022-11-15T13:06:02;13.30;91.30
4249;DHT22;8404;48.752;12.922;2022-11-15T13:08:52;13.30;91.30
4249;DHT22;8404;48.752;12.922;2022-11-15T13:11:47;13.30;91.30
4249;DHT22;8404;48.752;12.922;2022-11-15T13:14:45;13.40;91.40
4249;DHT22;8404;48.752;12.922;2022-11-15T13:17:33;13.50;91.30
4249;DHT22;8404;48.752;12.922;2022-11-15T13:20:18;13.60;91.20
4249;DHT22;8404;48.752;12.922;2022-11-15T13:22:49;13.60;91.30
4249;DHT22;8404;48.752;12.922;2022-11-15T13:25:47;13.70;90.80
4249;DHT22;8404;48.752;12.922;2022-11-15T13:28:27;13.70;91.30
4249;DHT22;8404;48.752;12.922;2022-11-15T13:31:00;13.80;91.30
4249;DHT22;8404;48.752;12.922;2022-11-15T13:33:32;13.90;91.40
4249;DHT22;8404;48.752;12.922;2022-11-15T13:36:05;14.00;91.20
4249;DHT22;8404;48.752;12.922;2022-11-15T13:38:37;14.10;90.90
4249;DHT22;8404;48.752;12.922;2022-11-15T13:41:18;14.20;90.50
4249;DHT22;8404;48.752;12.922;2022-11-15T13:43:47;14.30;90.40
4249;DHT22;8404;48.752;12.922;2022-11-15T13:46:17;14.50;90.60
4249;DHT22;8404;48.752;12.922;2022-11-15T13:48:50;14.70;90.40
4249;DHT22;8404;48.752;12.922;2022-11-15T13:51:22;14.90;90.00
4249;DHT22;8404;48.752;12.922;2022-11-15T13:54:02;15.00;89.10
4249;DHT22;8404;48.752;12.922;2022-11-15T13:56:32;15.10;87.90
4249;DHT22;8404;48.752;12.922;2022-11-15T13:59:08;15.30;87.50
4249;DHT22;8404;48.752;12.922;2022-11-15T14:01:37;15.40;86.90
4249;DHT22;8404;48.752;12.922;2022-11-15T14:04:12;15.50;85.60
4249;DHT22;8404;48.752;12.922;2022-11-15T14:06:45;15.60;84.60
4249;DHT22;8404;48.752;12.922;2022-11-15T14:09:34;15.80;84.20
4249;DHT22;8404;48.752;12.922;2022-11-15T14:12:23;15.90;83.20
4249;DHT22;8404;48.752;12.922;2022-11-15T14:14:52;16.10;82.70
4249;DHT22;8404;48.752;12.922;2022-11-15T14:17:32;16.20;82.50
4249;DHT22;8404;48.752;12.922;2022-11-15T14:20:01;16.30;82.40
4249;DHT22;8404;48.752;12.922;2022-11-15T14:22:29;16.50;81.80
4249;DHT22;8404;48.752;12.922;2022-11-15T14:25:16;16.60;81.00
4249;DHT22;8404;48.752;12.922;2022-11-15T14:28:11;16.60;80.20
4249;DHT22;8404;48.752;12.922;2022-11-15T14:30:42;16.60;80.20
4249;DHT22;8404;48.752;12.922;2022-11-15T14:33:25;16.60;79.60
4249;DHT22;8404;48.752;12.922;2022-11-15T14:35:56;16.60;78.30
4249;DHT22;8404;48.752;12.922;2022-11-15T14:38:25;16.50;78.90
4249;DHT22;8404;48.752;12.922;2022-11-15T14:40:55;16.50;78.40
4249;DHT22;8404;48.752;12.922;2022-11-15T14:43:23;16.40;77.90
4249;DHT22;8404;48.752;12.922;2022-11-15T14:45:51;16.30;77.60
4249;DHT22;8404;48.752;12.922;2022-11-15T14:48:19;16.30;77.70
4249;DHT22;8404;48.752;12.922;2022-11-15T14:50:48;16.20;77.40
4249;DHT22;8404;48.752;12.922;2022-11-15T14:53:17;16.10;77.60
4249;DHT22;8404;48.752;12.922;2022-11-15T14:55:46;16.00;77.40
4249;DHT22;8404;48.752;12.922;2022-11-15T14:58:16;15.90;77.00
4249;DHT22;8404;48.752;12.922;2022-11-15T15:00:44;15.80;77.20
4249;DHT22;8404;48.752;12.922;2022-11-15T15:03:12;15.60;76.80
4249;DHT22;8404;48.752;12.922;2022-11-15T15:05:41;15.30;76.80
4249;DHT22;8404;48.752;12.922;2022-11-15T15:08:10;15.10;77.00
4249;DHT22;8404;48.752;12.922;2022-11-15T15:10:40;14.90;77.10
4249;DHT22;8404;48.752;12.922;2022-11-15T15:13:17;14.70;77.40
4249;DHT22;8404;48.752;12.922;2022-11-15T15:15:46;14.50;77.80
4249;DHT22;8404;48.752;12.922;2022-11-15T15:18:15;14.40;77.70
4249;DHT22;8404;48.752;12.922;2022-11-15T15:20:44;14.20;77.70
4249;DHT22;8404;48.752;12.922;2022-11-15T15:23:17;14.00;78.10
4249;DHT22;8404;48.752;12.922;2022-11-15T15:25:46;13.90;78.40
4249;DHT22;8404;48.752;12.922;2022-11-15T15:28:17;13.70;78.80
4249;DHT22;8404;48.752;12.922;2022-11-15T15:30:45;13.50;79.10
4249;DHT22;8404;48.752;12.922;2022-11-15T15:33:13;13.40;79.40
4249;DHT22;8404;48.752;12.922;2022-11-15T15:35:42;13.20;79.80
4249;DHT22;8404;48.752;12.922;2022-11-15T15:38:11;13.10;80.30
4249;DHT22;8404;48.752;12.922;2022-11-15T15:40:40;12.80;80.60
4249;DHT22;8404;48.752;12.922;2022-11-15T15:43:08;12.70;81.10
4249;DHT22;8404;48.752;12.922;2022-11-15T15:45:38;12.50;81.50
4249;DHT22;8404;48.752;12.922;2022-11-15T15:48:10;12.40;81.80
4249;DHT22;8404;48.752;12.922;2022-11-15T15:50:39;12.30;82.20
4249;DHT22;8404;48.752;12.922;2022-11-15T15:53:10;12.10;82.50
4249;DHT22;8404;48.752;12.922;2022-11-15T15:55:39;12.00;82.70
4249;DHT22;8404;48.752;12.922;2022-11-15T15:58:07;11.80;82.70
4249;DHT22;8404;48.752;12.922;2022-11-15T16:00:37;11.60;82.80
4249;DHT22;8404;48.752;12.922;2022-11-15T16:03:05;11.50;83.10
4249;DHT22;8404;48.752;12.922;2022-11-15T16:05:33;11.40;83.50
4249;DHT22;8404;48.752;12.922;2022-11-15T16:08:02;11.20;83.80
4249;DHT22;8404;48.752;12.922;2022-11-15T16:10:32;11.10;84.20
4249;DHT22;8404;48.752;12.922;2022-11-15T16:13:01;10.90;84.40
4249;DHT22;8404;48.752;12.922;2022-11-15T16:15:30;10.80;84.60
4249;DHT22;8404;48.752;12.922;2022-11-15T16:18:00;10.70;84.90
4249;DHT22;8404;48.752;12.922;2022-11-15T16:20:35;10.50;85.00
4249;DHT22;8404;48.752;12.922;2022-11-15T16:23:05;10.50;85.40
4249;DHT22;8404;48.752;12.922;2022-11-15T16:25:41;10.30;85.50
4249;DHT22;8404;48.752;12.922;2022-11-15T16:28:18;10.20;85.70
4249;DHT22;8404;48.752;12.922;2022-11-15T16:30:47;10.10;86.00
4249;DHT22;8404;48.752;12.922;2022-11-15T16:33:24;10.00;86.30
4249;DHT22;8404;48.752;12.922;2022-11-15T16:35:52;9.90;86.60
4249;DHT22;8404;48.752;12.922;2022-11-15T16:38:20;9.70;86.90
4249;DHT22;8404;48.752;12.922;2022-11-15T16:40:48;9.60;87.20
4249;DHT22;8404;48.752;12.922;2022-11-15T16:43:16;9.50;87.70
4249;DHT22;8404;48.752;12.922;2022-11-15T16:45:44;9.40;87.90
4249;DHT22;8404;48.752;12.922;2022-11-15T16:48:21;9.30;88.10
4249;DHT22;8404;48.752;12.922;2022-11-15T16:50:53;9.20;88.30
4249;DHT22;8404;48.752;12.922;2022-11-15T16:53:22;9.10;88.40
4249;DHT22;8404;48.752;12.922;2022-11-15T16:55:50;9.00;88.50
4249;DHT22;8404;48.752;12.922;2022-11-15T16:58:20;8.90;88.60
4249;DHT22;8404;48.752;12.922;2022-11-15T17:00:50;8.80;88.80
4249;DHT22;8404;48.752;12.922;2022-11-15T17:03:19;8.60;88.90
4249;DHT22;8404;48.752;12.922;2022-11-15T17:05:47;8.50;89.40
4249;DHT22;8404;48.752;12.922;2022-11-15T17:08:17;8.50;89.80
4249;DHT22;8404;48.752;12.922;2022-11-15T17:10:46;8.40;90.10
4249;DHT22;8404;48.752;12.922;2022-11-15T17:13:14;8.30;90.20
4249;DHT22;8404;48.752;12.922;2022-11-15T17:15:43;8.30;90.30
4249;DHT22;8404;48.752;12.922;2022-11-15T17:18:11;8.20;90.50
4249;DHT22;8404;48.752;12.922;2022-11-15T17:20:41;8.10;90.70
4249;DHT22;8404;48.752;12.922;2022-11-15T17:23:12;8.10;90.90
4249;DHT22;8404;48.752;12.922;2022-11-15T17:25:42;8.00;91.00
4249;DHT22;8404;48.752;12.922;2022-11-15T17:28:10;7.90;91.10
4249;DHT22;8404;48.752;12.922;2022-11-15T17:30:42;7.90;91.20
4249;DHT22;8404;48.752;12.922;2022-11-15T17:33:10;7.80;91.30
4249;DHT22;8404;48.752;12.922;2022-11-15T17:35:38;7.70;91.30
4249;DHT22;8404;48.752;12.922;2022-11-15T17:38:06;7.70;91.50
4249;DHT22;8404;48.752;12.922;2022-11-15T17:40:34;7.70;91.60
4249;DHT22;8404;48.752;12.922;2022-11-15T17:43:05;7.60;91.70
4249;DHT22;8404;48.752;12.922;2022-11-15T17:45:33;7.60;91.70
4249;DHT22;8404;48.752;12.922;2022-11-15T17:48:03;7.50;91.80
4249;DHT22;8404;48.752;12.922;2022-11-15T17:50:31;7.50;91.90
4249;DHT22;8404;48.752;12.922;2022-11-15T17:52:59;7.40;91.90